Espace membre
Imprimable
Auderghem, 29/10/2017, BEL - Trail Brussel
Liste des rapports > 28km - Classement
Recherche: Page: [1]
83 Entrées
 
Les réclamations ne sont plus acceptées, les résultats sont considérés comme définitifs.
Catégorie
PosNrNomAgeIOCEquipeRéelTempsTkmMoy.RangNomScrLocalité
Vos photos grâce à Sportograf1.2214CLAUS Sofie39BEL2:08:442:08:454:36 13.051f1838SINAAI
Vos photos grâce à Sportograf2.215JOURDAIN Caroline43BEL2:16:442:16:454:54 12.291f4075
Vos photos grâce à Sportograf3.2151COLVIN Rhea25CAN2:22:132:22:395:06 11.782f18102BRUXELLES
Vos photos grâce à Sportograf4.429WASMES Isabelle43BEL2:24:142:24:155:10 11.652f40119
Vos photos grâce à Sportograf5.286ODEYN Joke32BEL2:25:552:26:035:13 11.503f18131
Vos photos grâce à Sportograf6.300PITTOORS Sofie45BEL2:26:442:27:075:16 11.423f40140
Vos photos grâce à Sportograf7.2163RAES Sofie42BEL2:33:072:33:325:29 10.944f40191WELLE
Vos photos grâce à Sportograf8.298PIPELERS Peregrine36BEL2:33:472:33:525:30 10.924f18193
Vos photos grâce à Sportograf9.247MACHIELS Heidi47BEL2:34:092:35:005:33 10.845f40196
Vos photos grâce à Sportograf10.179GRAINGER CLEMSON Hannah40BEL2:34:302:35:105:33 10.836f40197
Vos photos grâce à Sportograf11.157FAUVET Mélisande29BEL2:34:462:35:445:34 10.795f18205
Vos photos grâce à Sportograf12.185HAHN Rachel24USA2:36:012:36:325:36 10.736f18210
Vos photos grâce à Sportograf13.28BILLAUT Anne Sophie33BEL2:38:592:39:185:42 10.557f18228
Vos photos grâce à Sportograf14.269MOENS Maud28BEL2:39:482:40:195:44 10.488f18233
Vos photos grâce à Sportograf15.156FAICT Celine28FRA2:41:212:41:515:47 10.389f18241
Vos photos grâce à Sportograf16.229LAURENTSYEVA Nadzeya29BLR2:41:212:42:045:48 10.3710f18245
Vos photos grâce à Sportograf17.424VLAEMMINCK-DECOMBELE Laetitia22BEL2:42:452:42:545:50 10.3111f18251
Vos photos grâce à Sportograf18.271MOFOLO Relebohile31LSO2:42:112:43:085:50 10.3012f18255
Vos photos grâce à Sportograf19.33BORGOO Caroline28BEL2:42:402:43:095:50 10.3013f18256
Vos photos grâce à Sportograf20.177GOVAERTS Lieve34BEL2:42:592:43:385:51 10.2714f18258
Vos photos grâce à Sportograf21.414VERELST Anik37BEL2:43:342:43:595:52 10.2515f18262
Vos photos grâce à Sportograf22.61CAZIER Isabelle39BEL2:43:582:44:015:52 10.2416f18263
Vos photos grâce à Sportograf23.146DUCORROY Helene50FRA2:43:562:44:085:52 10.241f50265
Vos photos grâce à Sportograf24.39BRASLAVA Mara25LVA2:44:372:45:295:55 10.1517f18274
Vos photos grâce à Sportograf25.351STUHLMANN Anne31GER2:45:112:46:055:56 10.1218f18277
Vos photos grâce à Sportograf26.64CHHUN Siev You34FRA2:47:072:47:356:00 10.0319f18282
Vos photos grâce à Sportograf27.45BRUNIAUX CERTOSIO Marie49FRA2:47:442:47:566:00 10.007f40287
Vos photos grâce à Sportograf28.2296ENCKELS Barbara39BEL2:48:252:49:166:03 9.9320f18293MECHELEN
Vos photos grâce à Sportograf29.86CROENE Liesbeth46BEL2:49:112:49:206:03 9.928f40295
Vos photos grâce à Sportograf30.383VAN GELDER Stefan49BEL2:49:042:49:216:03 9.929f40296
Vos photos grâce à Sportograf31.69COLLAS Astrid28BEL2:49:282:50:256:06 9.8621f18301
Vos photos grâce à Sportograf32.143DROMELET Bérengère49BEL2:50:132:50:376:06 9.8510f40302
Vos photos grâce à Sportograf33.307RAES Els41BEL2:50:352:51:156:07 9.8111f40305
Vos photos grâce à Sportograf34.2231CLAESSENS Yannic45BEL2:53:362:54:066:14 9.6512f40313CHASTRE
Vos photos grâce à Sportograf35.264MEDUNOVA Dagmar42CZE2:54:062:54:196:14 9.6413f40315
Vos photos grâce à Sportograf36.2159LION Annick43BEL2:54:022:54:526:15 9.6114f40318WEMMEL
Vos photos grâce à Sportograf37.331SAMUDIO KOSTINA Ecaterina35COL2:54:152:55:026:16 9.6022f18319
Vos photos grâce à Sportograf38.147DURAND Corinne47FRA2:54:152:55:036:16 9.6015f40320
Vos photos grâce à Sportograf39.2210PRADERA Sabrina32BEL2:55:162:56:086:18 9.5423f18325WALHAIN
Vos photos grâce à Sportograf40.316ROBBERECHT Inge49BEL2:55:162:56:086:18 9.5416f40326
Vos photos grâce à Sportograf41.218KAREKEZI Dorothee26BEL3:00:303:00:346:27 9.3024f18336
Vos photos grâce à Sportograf42.79COURRIOL Violaine26BEL2:59:253:00:366:27 9.3025f18338
Vos photos grâce à Sportograf43.428WASILEWSKA Sylwia33BEL2:59:253:00:366:27 9.3026f18339
Vos photos grâce à Sportograf44.160GAUFILLET Karine47BEL2:59:453:00:406:28 9.3017f40340
Vos photos grâce à Sportograf45.34BOSSUT Mariannick35BEL3:01:063:02:166:31 9.2227f18342
Vos photos grâce à Sportograf46.242LONHIENNE Audrey38BEL3:01:053:02:166:31 9.2228f18343
Vos photos grâce à Sportograf47.26BIALESCHKI Chatty39USA3:02:123:02:586:33 9.1829f18346
Vos photos grâce à Sportograf48.419VERLOOP Joselien26NLD3:02:553:03:286:34 9.1630f18350
Vos photos grâce à Sportograf49.56CASANOVA Aline24FRA3:02:453:03:356:34 9.1531f18351
Vos photos grâce à Sportograf50.166GEORIS Isabelle43BEL3:05:163:05:216:38 9.0618f40358
Vos photos grâce à Sportograf51.108DE MEESTER Eline31BEL3:05:253:06:026:39 9.0332f18362
Vos photos grâce à Sportograf52.2172TER BEEK Rosie39GBR3:06:043:06:146:40 9.0233f18364BRUXELLES
Vos photos grâce à Sportograf53.360TOUBEAU Cecile34BEL3:06:253:06:296:40 9.0134f18365
Vos photos grâce à Sportograf54.23BERGHOLZ Claudia33GER3:06:303:06:406:40 9.0035f18366
Vos photos grâce à Sportograf55.224LALLEMAND Françoise45BEL3:06:573:07:506:43 8.9419f40369
Vos photos grâce à Sportograf56.2228VANDER GHINSTE Audrey21BEL3:07:183:08:466:45 8.9036f18371WESTROZEBEKE
Vos photos grâce à Sportograf57.314RIETVELD Anneke52NLD3:08:033:09:066:46 8.882f50374
Vos photos grâce à Sportograf58.315RIKKELMAN Joyce58NLD3:08:043:09:066:46 8.883f50375
Vos photos grâce à Sportograf59.2211TUENTER Emmy22NLD3:08:093:09:136:46 8.8837f18376WILRIJK
Vos photos grâce à Sportograf60.290PAUWELS Greet42BEL3:08:233:09:236:46 8.8720f40377
Vos photos grâce à Sportograf61.127DELVAUX Françoise52BEL3:10:283:11:246:51 8.784f50381
Vos photos grâce à Sportograf62.361TRAHÉ Catherine38BEL3:11:233:12:226:53 8.7338f18383
Vos photos grâce à Sportograf63.415VERGOTE Céline27BEL3:11:563:12:566:54 8.7139f18384
Vos photos grâce à Sportograf64.2174ROUZEEUW Ginette60BEL3:12:513:13:266:55 8.691f60385RIXENSART
Vos photos grâce à Sportograf65.172GOFFA Nathalie37BEL3:13:373:14:366:57 8.6340f18388
Vos photos grâce à Sportograf66.202JAAKKONEN Veera38FIN3:13:493:14:566:58 8.6241f18389
Vos photos grâce à Sportograf67.11ARETS Aurélie26BEL3:14:153:15:256:59 8.6042f18393
Vos photos grâce à Sportograf68.2212PATTYN Gaia Alessandra25BEL3:19:073:20:067:09 8.4043f18401
Vos photos grâce à Sportograf69.339SIPVIN Celine39BEL3:19:293:20:197:10 8.3944f18402
Vos photos grâce à Sportograf70.355THILS Joelle48BEL3:19:303:20:197:10 8.3921f40403
Vos photos grâce à Sportograf71.75CORFERS Elodie26BEL3:20:203:20:297:10 8.3845f18404
Vos photos grâce à Sportograf72.365TROUILLARD Evy35BEL3:20:363:21:247:12 8.3446f18405
Vos photos grâce à Sportograf73.283NUITTEN Lidewij25BEL3:21:343:22:487:15 8.2847f18408
Vos photos grâce à Sportograf74.31BLONDEEL Nina27FRA3:23:163:24:107:18 8.2348f18409
Vos photos grâce à Sportograf75.30BLONDEEL Marie33FRA3:23:183:24:117:18 8.2349f18410
Vos photos grâce à Sportograf76.390VAN WEMMEL Els29GER3:24:503:24:567:20 8.2050f18412
Vos photos grâce à Sportograf77.165GENTELET Joanna29FRA3:23:593:25:037:20 8.1951f18413
Vos photos grâce à Sportograf78.19BÉGASSE Zelda32FRA3:28:003:28:287:27 8.0652f18416
Vos photos grâce à Sportograf79.62CHAMALI Iman37BEL3:33:353:33:537:39 7.8653f18424
Vos photos grâce à Sportograf80.364TROIA Giovanna51BEL3:49:243:50:108:14 7.305f50426
Vos photos grâce à Sportograf81.362TREBUCHET Catherine45FRA4:29:204:30:169:40 6.2222f40430
Vos photos grâce à SportografDSQ99DE CLIPPELE Céline24BEL2:14:262:15:20f18
Vos photos grâce à SportografDNF266MENET Christel42BELf40
DNF: abandon; DSQ: disqualifié; Vitesse en km/h
Page: [1]